עמוד ראשי
METAR-TAF:

METAR-TAF

שדות תעופה :

סיודאד חוארס, מקסיקו

קו רוחב: 31-38N, קו אורך: 106-26W, גובה: 1171מטר

תצפית מזג אוויר נוכחית

הדו"ח נערך לפני 52דקות, בשעה 01:40 UTC
רוח 3קשר מכיוון דרום/דרום-מזרח
טמפרטורת 32 צלסיוס
לחות 23%
לחץ 1023 hPa
ראות: 16.1קילומטר
שמיים נקיים

METAR: MMCS 250140Z 16003KT 10SM SKC 32/08 A3020

זמן: 20:32 (02:32 UTC)

תחזית

הדו"ח נערך לפני 9 שעות ו 45דקות, בשעה 16:47 UTC
תחזית בתוקף מ 24 ב 18 UTC עד 25 ב 18 UTC
רוח 10קשר מכיוון מזרח/צפון-מזרח
ראות: 10קילומטר
עננים פזורים בגובה 4000רגל
מ 25 ב 0300UTC
רוח 4קשר מכיוון דרום/דרום-מזרח
ראות: 10קילומטר
עננים פזורים בגובה 8000רגל
מ 25 ב 1600UTC
רוח 10קשר מכיוון דרום/דרום-מערב
ראות: 10קילומטר
שמיים נקיים

TAF: MMCS 241647Z 2418/2518 06010KT P6SM SCT040 FM250300 16004KT P6SM SCT080 FM251600 20010KT P6SM SKC

תצפיות ותחזיות מזג אוויר לגבי יותר מ- 4,000 שדות תעופה ברחבי העולם. דוחות METAR ו- TAF.

התחנות הזמינות מסומנות בנקודות צהובות ואדומות על גבי המפה.

העבר את העכבר לנקודה הצבעונית על מנת לראות את שם התחנה.

לאחר מכן, לחץ כדי לראות את תוכן ואת תחזיות מזג האוויר.

כדי לשנות את המפה: לחץ על הכפתורים הירוקים עם הפלוס השחור כדי להתקרב; על הכפתור הירוק עם המקף כדי להתרחק; או בחיצים הירוקים למפות סמוכות.


METAR-TAF: